createdAt,value
2022-12-28T00:01:49.930Z,94.54
2022-12-28T00:04:16.523Z,94.48
2022-12-28T00:06:43.161Z,95.12
2022-12-28T00:09:12.649Z,95.49
2022-12-28T00:11:39.365Z,95.48
2022-12-28T00:14:06.108Z,95.70
2022-12-28T00:16:35.169Z,95.38
2022-12-28T00:19:04.854Z,96.07
2022-12-28T00:21:32.001Z,95.64
2022-12-28T00:24:00.924Z,96.56
2022-12-28T00:26:29.380Z,96.18
2022-12-28T00:29:03.599Z,96.35
2022-12-28T00:31:31.599Z,96.17
2022-12-28T00:33:58.217Z,95.95
2022-12-28T00:36:25.251Z,95.65
2022-12-28T00:39:11.872Z,95.66
2022-12-28T00:41:38.514Z,95.05
2022-12-28T00:44:08.004Z,95.66
2022-12-28T00:46:34.678Z,95.63
2022-12-28T00:49:01.287Z,95.79
2022-12-28T00:51:27.993Z,95.93
2022-12-28T00:53:54.650Z,96.29
2022-12-28T00:56:22.591Z,95.96
2022-12-28T00:58:50.029Z,95.47
2022-12-28T01:01:22.187Z,96.35
2022-12-28T01:03:50.633Z,96.31
2022-12-28T01:06:19.624Z,96.11
2022-12-28T01:08:46.809Z,95.54
2022-12-28T01:11:16.393Z,95.38
2022-12-28T01:13:42.974Z,95.69
2022-12-28T01:16:19.572Z,95.63
2022-12-28T01:18:48.407Z,95.80
2022-12-28T01:21:17.766Z,95.89
2022-12-28T01:23:45.570Z,95.24
2022-12-28T01:26:12.620Z,94.98
2022-12-28T01:28:39.450Z,95.00
2022-12-28T01:31:08.586Z,94.53
2022-12-28T01:33:35.445Z,95.18
2022-12-28T01:36:09.480Z,95.33
2022-12-28T01:38:37.492Z,95.41
2022-12-28T01:41:09.328Z,94.95
2022-12-28T01:43:42.255Z,95.27
2022-12-28T01:46:15.088Z,96.01
2022-12-28T01:48:50.541Z,95.58
2022-12-28T01:51:20.527Z,95.44
2022-12-28T01:53:51.658Z,96.44
2022-12-28T01:56:18.582Z,96.75
2022-12-28T01:58:45.837Z,97.77
2022-12-28T02:01:12.691Z,96.90
2022-12-28T02:03:39.421Z,97.38
2022-12-28T02:06:09.399Z,97.81
2022-12-28T02:09:01.148Z,98.18
2022-12-28T02:11:29.927Z,98.15
2022-12-28T02:13:58.427Z,98.04
2022-12-28T02:16:25.049Z,97.81
2022-12-28T02:18:52.052Z,98.19
2022-12-28T02:21:36.808Z,98.58
2022-12-28T02:24:48.359Z,99.01
2022-12-28T02:28:04.873Z,98.75
2022-12-28T02:30:38.252Z,98.14
2022-12-28T02:33:24.947Z,98.33
2022-12-28T02:36:01.407Z,98.29
2022-12-28T02:38:40.467Z,97.65
2022-12-28T02:41:12.744Z,97.50
2022-12-28T02:43:39.687Z,97.18
2022-12-28T02:46:37.418Z,96.80
2022-12-28T02:49:37.025Z,97.01
2022-12-28T02:52:25.317Z,96.37
2022-12-28T02:55:29.466Z,95.97
2022-12-28T02:58:26.519Z,95.35
2022-12-28T03:01:10.309Z,95.51
2022-12-28T03:03:41.682Z,94.66
2022-12-28T03:06:35.310Z,94.45
2022-12-28T03:09:21.212Z,94.61
2022-12-28T03:11:54.012Z,94.32
2022-12-28T03:14:28.861Z,94.72
2022-12-28T03:17:18.190Z,94.59
2022-12-28T03:20:08.562Z,95.16
2022-12-28T03:22:55.733Z,94.88
2022-12-28T03:25:46.847Z,95.25
2022-12-28T03:28:37.534Z,95.01
2022-12-28T03:31:10.274Z,94.67
2022-12-28T03:33:49.488Z,94.96
2022-12-28T03:36:30.486Z,94.57
2022-12-28T03:39:13.577Z,94.98
2022-12-28T03:42:19.809Z,95.14
2022-12-28T03:44:54.644Z,94.98
2022-12-28T03:47:23.774Z,94.55
2022-12-28T03:49:50.473Z,94.40
2022-12-28T03:52:17.276Z,94.03
2022-12-28T03:54:45.496Z,94.51
2022-12-28T03:57:17.007Z,94.28
2022-12-28T03:59:45.330Z,94.39
2022-12-28T04:02:12.486Z,94.05
2022-12-28T04:04:39.396Z,93.80
2022-12-28T04:07:05.983Z,93.33
2022-12-28T04:09:32.661Z,93.69
2022-12-28T04:11:59.796Z,92.75
2022-12-28T04:14:45.019Z,93.61
2022-12-28T04:17:12.189Z,93.26
2022-12-28T04:19:42.416Z,93.88
2022-12-28T04:22:09.001Z,94.37
2022-12-28T04:24:36.101Z,94.21
2022-12-28T04:27:02.720Z,94.47
2022-12-28T04:29:29.582Z,94.03
2022-12-28T04:32:16.409Z,93.94
2022-12-28T04:34:48.239Z,93.59
2022-12-28T04:37:17.969Z,93.44
2022-12-28T04:39:55.665Z,93.66
2022-12-28T04:42:25.735Z,93.95
2022-12-28T04:44:52.467Z,93.60
2022-12-28T04:47:19.174Z,94.11
2022-12-28T04:49:45.829Z,94.30
2022-12-28T04:52:12.745Z,94.82
2022-12-28T04:54:39.331Z,94.91
2022-12-28T04:57:06.878Z,94.95
2022-12-28T04:59:33.546Z,95.17
2022-12-28T05:02:00.229Z,94.55
2022-12-28T05:04:26.923Z,94.36
2022-12-28T05:06:53.532Z,94.39
2022-12-28T05:09:20.065Z,94.43
2022-12-28T05:11:46.630Z,94.14
2022-12-28T05:14:13.261Z,93.40
2022-12-28T05:16:39.886Z,93.06
2022-12-28T05:19:06.452Z,92.98
2022-12-28T05:21:33.089Z,92.79
2022-12-28T05:23:59.865Z,92.81
2022-12-28T05:26:29.240Z,92.47
2022-12-28T05:28:56.931Z,92.20
2022-12-28T05:31:24.262Z,92.24
2022-12-28T05:33:51.885Z,91.47
2022-12-28T05:36:23.601Z,91.13
2022-12-28T05:38:50.576Z,90.87
2022-12-28T05:41:22.503Z,91.29
2022-12-28T05:43:49.579Z,91.14
2022-12-28T05:46:22.044Z,91.28
2022-12-28T05:48:48.882Z,91.24
2022-12-28T05:51:18.675Z,91.24
2022-12-28T05:53:45.967Z,91.00
2022-12-28T05:56:20.110Z,90.87
2022-12-28T05:58:52.487Z,91.10
2022-12-28T06:01:21.307Z,91.24
2022-12-28T06:03:52.075Z,90.55
2022-12-28T06:06:19.710Z,90.21
2022-12-28T06:08:47.782Z,90.19
2022-12-28T06:11:20.704Z,90.04
2022-12-28T06:13:47.727Z,89.33
2022-12-28T06:16:18.808Z,89.50
2022-12-28T06:18:45.959Z,89.41
2022-12-28T06:21:24.771Z,89.70
2022-12-28T06:23:51.866Z,89.31
2022-12-28T06:26:21.207Z,88.89
2022-12-28T06:28:48.585Z,88.91
2022-12-28T06:31:16.654Z,89.49
2022-12-28T06:33:44.004Z,89.00
2022-12-28T06:36:19.434Z,87.94
2022-12-28T06:38:47.637Z,88.78
2022-12-28T06:41:15.387Z,88.42
2022-12-28T06:43:43.251Z,88.46
2022-12-28T06:46:11.281Z,88.66
2022-12-28T06:48:38.037Z,88.98
2022-12-28T06:51:26.102Z,88.54
2022-12-28T06:53:54.045Z,88.81
2022-12-28T06:56:28.994Z,88.44
2022-12-28T06:59:02.436Z,89.02
2022-12-28T07:01:33.293Z,88.96
2022-12-28T07:04:01.511Z,89.07
2022-12-28T07:06:29.263Z,89.10
2022-12-28T07:09:01.888Z,89.14
2022-12-28T07:11:29.155Z,89.89
2022-12-28T07:13:56.331Z,89.41
2022-12-28T07:16:24.415Z,89.66
2022-12-28T07:18:51.096Z,89.91
2022-12-28T07:21:29.523Z,89.15
2022-12-28T07:23:57.159Z,88.34
2022-12-28T07:26:26.606Z,88.70
2022-12-28T07:28:55.729Z,88.78
2022-12-28T07:31:39.787Z,89.09
2022-12-28T07:34:08.518Z,88.82
2022-12-28T07:36:35.190Z,88.33
2022-12-28T07:39:02.203Z,88.92
2022-12-28T07:41:32.778Z,88.38
2022-12-28T07:44:00.504Z,87.68
2022-12-28T07:46:29.841Z,87.94
2022-12-28T07:48:59.322Z,88.15
2022-12-28T07:51:27.370Z,88.02
2022-12-28T07:53:55.103Z,87.22
2022-12-28T07:56:23.195Z,86.42
2022-12-28T07:58:54.287Z,85.76
2022-12-28T08:01:23.096Z,85.97
2022-12-28T08:03:53.635Z,85.65
2022-12-28T08:06:23.105Z,85.13
2022-12-28T08:08:51.982Z,85.05
2022-12-28T08:11:21.980Z,84.53
2022-12-28T08:13:51.527Z,84.86
2022-12-28T08:16:20.312Z,85.38
2022-12-28T08:18:48.538Z,84.93
2022-12-28T08:21:18.374Z,84.96
2022-12-28T08:23:45.446Z,84.23
2022-12-28T08:26:21.148Z,83.79
2022-12-28T08:28:49.787Z,83.33
2022-12-28T08:31:38.071Z,82.85
2022-12-28T08:34:09.344Z,83.02
2022-12-28T08:36:35.976Z,83.33
2022-12-28T08:39:03.879Z,82.78
2022-12-28T08:41:31.104Z,82.36
2022-12-28T08:43:58.375Z,82.58
2022-12-28T08:46:28.021Z,83.04
2022-12-28T08:48:56.394Z,82.35
2022-12-28T08:51:43.407Z,82.65
2022-12-28T08:54:11.735Z,82.42
2022-12-28T08:56:40.077Z,82.43
2022-12-28T08:59:06.764Z,82.43
2022-12-28T09:01:43.815Z,82.86
2022-12-28T09:04:17.062Z,82.68
2022-12-28T09:06:43.960Z,83.02
2022-12-28T09:09:13.818Z,82.42
2022-12-28T09:11:40.990Z,82.77
2022-12-28T09:14:09.544Z,83.60
2022-12-28T09:16:37.302Z,83.57
2022-12-28T09:19:06.304Z,83.79
2022-12-28T09:21:38.760Z,83.80
2022-12-28T09:24:06.347Z,83.17
2022-12-28T09:26:36.531Z,82.98
2022-12-28T09:29:05.584Z,82.15
2022-12-28T09:31:33.451Z,82.21
2022-12-28T09:36:50.878Z,80.67
2022-12-28T09:39:19.943Z,80.73
2022-12-28T09:42:11.663Z,80.60
2022-12-28T09:44:45.691Z,81.01
2022-12-28T09:47:17.415Z,80.98
2022-12-28T09:50:04.546Z,81.10
2022-12-28T09:52:49.420Z,81.24
2022-12-28T09:55:18.430Z,80.31
2022-12-28T09:57:49.693Z,80.42
2022-12-28T10:00:19.387Z,80.15
2022-12-28T10:02:57.302Z,80.06
2022-12-28T10:05:24.216Z,79.25
2022-12-28T10:07:52.993Z,79.09
2022-12-28T10:10:23.389Z,78.54
2022-12-28T10:12:50.998Z,79.15
2022-12-28T10:15:17.871Z,79.14
2022-12-28T10:17:45.359Z,78.35
2022-12-28T10:20:17.542Z,78.30
2022-12-28T10:22:50.184Z,77.91
2022-12-28T10:25:20.596Z,77.89
2022-12-28T10:27:47.295Z,77.21
2022-12-28T10:30:18.788Z,77.11
2022-12-28T10:32:51.514Z,76.99
2022-12-28T10:35:41.507Z,76.96
2022-12-28T10:38:22.026Z,76.04
2022-12-28T10:40:58.452Z,76.42
2022-12-28T10:43:28.593Z,77.01
2022-12-28T10:45:57.673Z,76.97
2022-12-28T10:48:39.167Z,76.77
2022-12-28T10:51:13.735Z,75.99
2022-12-28T10:53:40.267Z,76.41
2022-12-28T10:56:13.396Z,75.97
2022-12-28T10:58:41.894Z,76.26
2022-12-28T11:01:14.573Z,75.89
2022-12-28T11:03:46.771Z,75.89
2022-12-28T11:06:26.679Z,75.39
2022-12-28T11:09:10.837Z,75.92
2022-12-28T11:11:37.381Z,75.31
2022-12-28T11:14:26.402Z,75.54
2022-12-28T11:16:53.395Z,74.95
2022-12-28T11:19:20.899Z,75.10
2022-12-28T11:21:49.049Z,74.47
2022-12-28T11:24:17.646Z,73.59
2022-12-28T11:26:48.078Z,73.67
2022-12-28T11:29:18.076Z,73.63
2022-12-28T11:31:53.280Z,73.76
2022-12-28T11:34:25.536Z,73.90
2022-12-28T11:36:52.289Z,73.64
2022-12-28T11:39:27.711Z,73.55
2022-12-28T11:42:36.663Z,74.22
2022-12-28T11:44:42.613Z,73.95
2022-12-28T11:47:18.222Z,73.24
2022-12-28T11:49:46.383Z,73.57
2022-12-28T11:52:24.078Z,73.46
2022-12-28T11:54:56.585Z,73.86
2022-12-28T11:57:39.425Z,73.24
2022-12-28T12:00:37.809Z,72.80
2022-12-28T12:03:04.514Z,72.58
2022-12-28T12:05:40.088Z,72.84
2022-12-28T12:08:12.546Z,73.70
2022-12-28T12:10:41.707Z,73.61
2022-12-28T12:13:26.428Z,72.98
2022-12-28T12:16:00.041Z,73.00
2022-12-28T12:18:29.975Z,73.13
2022-12-28T12:21:06.780Z,72.58
2022-12-28T12:23:42.984Z,73.41
2022-12-28T12:26:35.443Z,73.16
2022-12-28T12:29:14.267Z,73.18
2022-12-28T12:31:49.930Z,73.58
2022-12-28T12:34:27.459Z,72.70
2022-12-28T12:37:31.200Z,72.93
2022-12-28T12:40:18.146Z,73.85
2022-12-28T12:42:47.400Z,73.19
2022-12-28T12:45:19.998Z,73.84
2022-12-28T12:47:46.520Z,74.07
2022-12-28T12:50:15.975Z,74.29
2022-12-28T12:53:19.955Z,73.79
2022-12-28T12:56:13.767Z,73.48
2022-12-28T12:59:17.592Z,74.32
2022-12-28T13:01:57.391Z,74.46
2022-12-28T13:04:31.889Z,75.06
2022-12-28T13:07:03.020Z,75.39
2022-12-28T13:09:33.008Z,75.41
2022-12-28T13:12:01.737Z,75.51
2022-12-28T13:14:28.516Z,75.85
2022-12-28T13:16:58.380Z,76.60
2022-12-28T13:19:27.436Z,76.99
2022-12-28T13:21:55.237Z,77.01
2022-12-28T13:24:25.953Z,76.73
2022-12-28T13:26:54.070Z,76.70
2022-12-28T13:29:23.951Z,77.44
2022-12-28T13:31:51.617Z,77.45
2022-12-28T13:34:30.115Z,78.16
2022-12-28T13:36:59.703Z,78.61
2022-12-28T13:39:28.485Z,78.86
2022-12-28T13:42:19.906Z,79.05
2022-12-28T13:44:55.088Z,79.53
2022-12-28T13:47:28.480Z,79.75
2022-12-28T13:50:03.349Z,80.38
2022-12-28T13:52:44.591Z,80.98
2022-12-28T13:55:18.106Z,80.78
2022-12-28T13:57:54.217Z,81.28
2022-12-28T14:00:24.328Z,80.98
2022-12-28T14:02:53.936Z,81.36
2022-12-28T14:05:26.203Z,81.31
2022-12-28T14:07:55.128Z,81.44
2022-12-28T14:10:22.407Z,81.86
2022-12-28T14:12:50.176Z,82.00
2022-12-28T14:15:18.262Z,82.81
2022-12-28T14:17:47.537Z,82.81
2022-12-28T14:20:14.229Z,82.83
2022-12-28T14:22:41.881Z,82.80
2022-12-28T14:25:11.299Z,83.23
2022-12-28T14:27:56.996Z,83.09
2022-12-28T14:30:36.805Z,83.05
2022-12-28T14:33:24.791Z,82.52
2022-12-28T14:35:57.025Z,82.84
2022-12-28T14:38:28.605Z,82.21
2022-12-28T14:40:57.408Z,82.64
2022-12-28T14:43:35.708Z,82.44
2022-12-28T14:46:38.981Z,82.33
2022-12-28T14:49:31.269Z,81.55
2022-12-28T14:52:17.868Z,82.15
2022-12-28T14:54:52.419Z,81.71
2022-12-28T14:57:27.047Z,81.51
2022-12-28T15:00:05.366Z,81.10
2022-12-28T15:02:34.864Z,81.09
2022-12-28T15:05:03.369Z,81.16
2022-12-28T15:07:33.045Z,80.91
2022-12-28T15:10:00.330Z,81.07
2022-12-28T15:12:26.993Z,80.36
2022-12-28T15:14:53.554Z,80.26
2022-12-28T15:17:20.165Z,80.60
2022-12-28T15:19:46.884Z,80.56
2022-12-28T15:22:13.776Z,80.42
2022-12-28T15:24:45.019Z,80.64
2022-12-28T15:27:11.689Z,80.61
2022-12-28T15:32:24.895Z,80.78
2022-12-28T15:34:51.480Z,80.45
2022-12-28T15:37:18.293Z,79.98
2022-12-28T15:39:44.877Z,79.93
2022-12-28T15:42:11.433Z,79.55
2022-12-28T15:44:38.011Z,79.13
2022-12-28T15:47:04.756Z,78.31
2022-12-28T15:49:31.356Z,78.84
2022-12-28T15:51:57.965Z,79.29
2022-12-28T15:54:24.524Z,78.84
2022-12-28T15:56:53.043Z,78.50
2022-12-28T15:59:19.683Z,77.95
2022-12-28T16:01:47.304Z,77.39
2022-12-28T16:04:14.472Z,77.61
2022-12-28T16:06:44.596Z,77.59
2022-12-28T16:09:13.245Z,77.74
2022-12-28T16:11:40.900Z,77.41
2022-12-28T16:14:08.939Z,77.61
2022-12-28T16:16:39.041Z,77.40
2022-12-28T16:19:07.124Z,77.35
2022-12-28T16:21:33.839Z,77.73
2022-12-28T16:24:01.026Z,77.70
2022-12-28T16:26:28.315Z,77.71
2022-12-28T16:28:55.045Z,77.52
2022-12-28T16:31:23.544Z,76.98
2022-12-28T16:33:58.488Z,77.03
2022-12-28T16:36:25.293Z,77.03
2022-12-28T16:38:52.135Z,77.06
2022-12-28T16:41:19.245Z,76.19
2022-12-28T16:43:46.909Z,76.48
2022-12-28T16:46:14.107Z,76.93
2022-12-28T16:48:41.006Z,76.66
2022-12-28T16:51:08.041Z,76.66
2022-12-28T16:53:36.442Z,77.11
2022-12-28T16:56:05.155Z,77.13
2022-12-28T16:58:32.953Z,77.07
2022-12-28T17:01:06.113Z,77.75
2022-12-28T17:03:32.828Z,77.19
2022-12-28T17:05:59.521Z,77.69
2022-12-28T17:08:26.333Z,77.65
2022-12-28T17:10:52.952Z,77.95
2022-12-28T17:13:19.575Z,78.04
2022-12-28T17:15:46.119Z,77.85
2022-12-28T17:18:13.552Z,77.85
2022-12-28T17:20:40.556Z,78.27
2022-12-28T17:23:08.394Z,78.55
2022-12-28T17:25:36.048Z,78.38
2022-12-28T17:28:03.401Z,78.58
2022-12-28T17:30:30.208Z,79.01
2022-12-28T17:32:57.186Z,78.97
2022-12-28T17:35:24.144Z,79.33
2022-12-28T17:37:50.999Z,80.04
2022-12-28T17:40:17.829Z,80.86
2022-12-28T17:42:44.534Z,80.98
2022-12-28T17:45:12.164Z,81.00
2022-12-28T17:47:39.611Z,81.90
2022-12-28T17:50:07.204Z,82.58
2022-12-28T17:52:33.787Z,82.54
2022-12-28T17:55:00.436Z,83.14
2022-12-28T17:57:27.092Z,82.84
2022-12-28T17:59:53.902Z,83.21
2022-12-28T18:02:20.637Z,83.37
2022-12-28T18:04:48.167Z,83.26
2022-12-28T18:07:14.836Z,83.35
2022-12-28T18:09:41.580Z,83.92
2022-12-28T18:12:08.142Z,84.19
2022-12-28T18:14:35.075Z,84.07
2022-12-28T18:17:01.799Z,83.64
2022-12-28T18:19:28.446Z,83.29
2022-12-28T18:21:55.047Z,83.02
2022-12-28T18:24:22.030Z,82.68
2022-12-28T18:26:48.723Z,82.57
2022-12-28T18:29:15.363Z,83.08
2022-12-28T18:31:41.981Z,83.23
2022-12-28T18:34:08.659Z,82.86
2022-12-28T18:36:35.213Z,82.59
2022-12-28T18:39:03.058Z,82.98
2022-12-28T18:41:33.956Z,83.49
2022-12-28T18:44:02.929Z,82.59
2022-12-28T18:46:29.841Z,82.47
2022-12-28T18:48:56.747Z,82.98
2022-12-28T18:51:23.531Z,82.80
2022-12-28T18:53:50.968Z,82.93
2022-12-28T18:56:20.519Z,82.88
2022-12-28T18:58:55.606Z,83.38
2022-12-28T19:04:12.448Z,83.11
2022-12-28T19:06:39.539Z,83.37
2022-12-28T19:09:07.490Z,83.05
2022-12-28T19:11:35.360Z,82.72
2022-12-28T19:14:07.129Z,82.72
2022-12-28T19:16:34.139Z,83.08
2022-12-28T19:19:00.944Z,83.79
2022-12-28T19:21:31.376Z,83.98
2022-12-28T19:24:03.197Z,83.61
2022-12-28T19:26:31.393Z,83.36
2022-12-28T19:28:58.480Z,83.86
2022-12-28T19:31:25.555Z,83.63
2022-12-28T19:33:52.238Z,83.71
2022-12-28T19:36:18.823Z,83.77
2022-12-28T19:38:45.685Z,83.71
2022-12-28T19:41:14.011Z,84.23
2022-12-28T19:43:40.647Z,83.92
2022-12-28T19:46:13.751Z,84.14
2022-12-28T19:48:40.667Z,83.74
2022-12-28T19:51:07.589Z,83.36
2022-12-28T19:53:34.269Z,83.49
2022-12-28T19:56:06.980Z,83.42
2022-12-28T19:58:35.555Z,82.46
2022-12-28T20:01:09.836Z,82.56
2022-12-28T20:03:37.037Z,82.38
2022-12-28T20:06:08.093Z,81.86
2022-12-28T20:08:34.861Z,81.46
2022-12-28T20:11:03.322Z,81.35
2022-12-28T20:13:33.834Z,81.62
2022-12-28T20:16:00.535Z,82.22
2022-12-28T20:18:27.171Z,83.33
2022-12-28T20:21:18.536Z,83.18
2022-12-28T20:23:40.362Z,84.49
2022-12-28T20:26:06.987Z,85.09
2022-12-28T20:28:34.515Z,86.15
2022-12-28T20:31:12.519Z,86.67
2022-12-28T20:33:40.072Z,86.31
2022-12-28T20:36:10.396Z,86.77
2022-12-28T20:38:37.455Z,86.42
2022-12-28T20:41:35.435Z,86.26
2022-12-28T20:44:05.421Z,85.93
2022-12-28T20:46:32.872Z,85.74
2022-12-28T20:48:59.712Z,86.01
2022-12-28T20:51:27.559Z,86.23
2022-12-28T20:53:54.600Z,86.60
2022-12-28T20:56:22.616Z,86.52
2022-12-28T20:58:49.254Z,86.32
2022-12-28T21:01:17.070Z,86.74
2022-12-28T21:03:44.658Z,86.08
2022-12-28T21:06:11.855Z,87.13
2022-12-28T21:08:38.564Z,86.76
2022-12-28T21:11:05.400Z,87.16
2022-12-28T21:13:32.014Z,87.68
2022-12-28T21:15:58.961Z,87.16
2022-12-28T21:18:25.588Z,87.19
2022-12-28T21:20:55.510Z,87.55
2022-12-28T21:23:22.299Z,87.88
2022-12-28T21:25:49.185Z,87.38
2022-12-28T21:28:15.828Z,87.76
2022-12-28T21:30:42.443Z,87.78
2022-12-28T21:33:09.126Z,87.68
2022-12-28T21:35:35.704Z,87.35
2022-12-28T21:38:04.118Z,86.95
2022-12-28T21:40:30.679Z,87.20
2022-12-28T21:42:57.245Z,86.88
2022-12-28T21:45:23.902Z,86.31
2022-12-28T21:47:50.541Z,86.72
2022-12-28T21:50:17.228Z,86.84
2022-12-28T21:52:43.815Z,87.00
2022-12-28T21:55:29.148Z,86.86
2022-12-28T21:57:55.683Z,86.97
2022-12-28T22:00:40.750Z,86.49
2022-12-28T22:03:26.235Z,86.85
2022-12-28T22:06:04.923Z,85.95
2022-12-28T22:08:51.349Z,86.51
2022-12-28T22:11:37.001Z,86.76
2022-12-28T22:14:04.713Z,86.63
2022-12-28T22:16:32.935Z,86.99
2022-12-28T22:19:02.714Z,86.64
2022-12-28T22:21:29.869Z,86.69
2022-12-28T22:23:56.473Z,86.47
2022-12-28T22:26:23.256Z,86.50
2022-12-28T22:28:49.875Z,86.07
2022-12-28T22:31:16.571Z,85.99
2022-12-28T22:33:43.404Z,85.90
2022-12-28T22:36:16.049Z,84.95
2022-12-28T22:38:42.817Z,85.19
2022-12-28T22:41:09.923Z,84.66
2022-12-28T22:43:36.713Z,84.66
2022-12-28T22:46:11.861Z,84.91
2022-12-28T22:48:38.555Z,85.20
2022-12-28T22:51:10.471Z,85.15
2022-12-28T22:53:37.881Z,84.92
2022-12-28T22:56:08.118Z,84.92
2022-12-28T22:58:34.706Z,84.64
2022-12-28T23:01:10.515Z,84.42
2022-12-28T23:03:38.716Z,84.09
2022-12-28T23:06:06.574Z,84.42
2022-12-28T23:08:33.854Z,84.84
2022-12-28T23:11:02.934Z,84.23
2022-12-28T23:13:31.870Z,84.24
2022-12-28T23:16:01.222Z,84.54
2022-12-28T23:18:47.028Z,84.87
2022-12-28T23:21:40.952Z,85.18
2022-12-28T23:24:30.807Z,85.32
2022-12-28T23:27:17.606Z,85.50
2022-12-28T23:29:45.465Z,85.64
2022-12-28T23:32:12.472Z,86.25
2022-12-28T23:34:39.039Z,86.64
2022-12-28T23:37:05.665Z,87.50
2022-12-28T23:39:32.287Z,87.51
2022-12-28T23:41:58.891Z,88.24
2022-12-28T23:44:26.564Z,89.87
2022-12-28T23:46:58.950Z,90.69
2022-12-28T23:49:27.520Z,91.98
2022-12-28T23:51:54.823Z,93.10
2022-12-28T23:54:22.195Z,94.42
2022-12-28T23:56:49.123Z,96.27
2022-12-28T23:59:15.798Z,97.32
